createdAt,value
2019-01-13T00:00:41.440Z,2.70
2019-01-13T00:03:15.110Z,2.80
2019-01-13T00:05:48.848Z,2.70
2019-01-13T00:08:22.426Z,2.80
2019-01-13T00:10:56.367Z,2.80
2019-01-13T00:13:30.089Z,2.80
2019-01-13T00:16:03.911Z,2.80
2019-01-13T00:18:37.719Z,2.80
2019-01-13T00:21:11.246Z,2.80
2019-01-13T00:23:44.827Z,2.80
2019-01-13T00:26:18.601Z,2.90
2019-01-13T00:28:52.234Z,2.90
2019-01-13T00:31:25.947Z,2.90
2019-01-13T00:33:59.603Z,3.00
2019-01-13T00:36:33.209Z,3.00
2019-01-13T00:39:07.824Z,3.00
2019-01-13T00:41:41.513Z,3.00
2019-01-13T00:44:15.234Z,3.00
2019-01-13T00:46:48.877Z,3.00
2019-01-13T00:49:22.439Z,3.00
2019-01-13T00:51:56.205Z,3.00
2019-01-13T00:54:29.777Z,3.00
2019-01-13T00:57:03.457Z,3.00
2019-01-13T00:59:37.040Z,3.00
2019-01-13T01:02:10.792Z,3.00
2019-01-13T01:04:44.387Z,3.00
2019-01-13T01:07:18.055Z,3.00
2019-01-13T01:09:51.735Z,3.00
2019-01-13T01:12:25.463Z,3.00
2019-01-13T01:14:59.071Z,3.00
2019-01-13T01:17:32.693Z,2.90
2019-01-13T01:20:09.709Z,2.80
2019-01-13T01:22:43.361Z,2.70
2019-01-13T01:25:19.873Z,2.60
2019-01-13T01:27:53.523Z,2.50
2019-01-13T01:30:33.282Z,2.50
2019-01-13T01:33:02.388Z,2.40
2019-01-13T01:35:36.101Z,2.40
2019-01-13T01:38:09.676Z,2.50
2019-01-13T01:40:43.329Z,2.50
2019-01-13T01:43:16.922Z,2.50
2019-01-13T01:45:50.527Z,2.50
2019-01-13T01:48:24.179Z,2.60
2019-01-13T01:50:57.860Z,2.60
2019-01-13T01:53:31.627Z,2.70
2019-01-13T01:56:05.455Z,2.70
2019-01-13T01:58:39.033Z,2.70
2019-01-13T02:01:12.754Z,2.80
2019-01-13T02:03:46.379Z,2.80
2019-01-13T02:06:20.086Z,2.80
2019-01-13T02:08:53.662Z,2.80
2019-01-13T02:11:27.236Z,2.90
2019-01-13T02:14:00.859Z,2.90
2019-01-13T02:16:34.563Z,2.90
2019-01-13T02:19:08.293Z,2.90
2019-01-13T02:21:41.993Z,2.90
2019-01-13T02:24:15.613Z,2.90
2019-01-13T02:26:49.225Z,3.00
2019-01-13T02:29:22.821Z,3.00
2019-01-13T02:31:56.465Z,3.00
2019-01-13T02:34:30.052Z,3.00
2019-01-13T02:37:03.802Z,3.00
2019-01-13T02:39:37.383Z,3.00
2019-01-13T02:42:11.155Z,3.00
2019-01-13T02:44:44.793Z,3.00
2019-01-13T02:47:18.449Z,3.00
2019-01-13T02:49:52.016Z,3.00
2019-01-13T02:52:25.651Z,3.00
2019-01-13T02:54:59.224Z,3.00
2019-01-13T02:57:32.863Z,3.00
2019-01-13T03:00:12.574Z,3.00
2019-01-13T03:02:46.278Z,3.00
2019-01-13T03:05:19.989Z,3.00
2019-01-13T03:07:53.746Z,3.00
2019-01-13T03:10:27.415Z,3.00
2019-01-13T03:13:01.161Z,3.00
2019-01-13T03:15:34.809Z,3.00
2019-01-13T03:18:08.604Z,2.90
2019-01-13T03:20:42.291Z,2.80
2019-01-13T03:23:15.922Z,2.80
2019-01-13T03:25:49.509Z,2.80
2019-01-13T03:28:23.139Z,2.80
2019-01-13T03:31:10.361Z,2.80
2019-01-13T03:33:32.132Z,2.90
2019-01-13T03:36:05.775Z,2.90
2019-01-13T03:38:39.401Z,3.00
2019-01-13T03:41:12.998Z,3.00
2019-01-13T03:43:46.641Z,3.00
2019-01-13T03:46:20.230Z,3.00
2019-01-13T03:48:54.185Z,3.10
2019-01-13T03:51:27.780Z,3.10
2019-01-13T03:54:01.384Z,3.10
2019-01-13T03:56:35.121Z,3.10
2019-01-13T03:59:08.825Z,3.10
2019-01-13T04:01:42.481Z,3.10
2019-01-13T04:04:16.192Z,3.10
2019-01-13T04:06:49.789Z,3.10
2019-01-13T04:09:23.407Z,3.10
2019-01-13T04:11:57.127Z,3.10
2019-01-13T04:14:30.833Z,3.10
2019-01-13T04:17:04.739Z,3.10
2019-01-13T04:19:38.379Z,3.20
2019-01-13T04:22:11.981Z,3.20
2019-01-13T04:24:45.601Z,3.20
2019-01-13T04:27:19.176Z,3.20
2019-01-13T04:29:53.018Z,3.20
2019-01-13T04:32:26.594Z,3.30
2019-01-13T04:35:00.265Z,3.30
2019-01-13T04:37:33.849Z,3.30
2019-01-13T04:40:09.609Z,3.30
2019-01-13T04:42:43.197Z,3.40
2019-01-13T04:45:16.879Z,3.40
2019-01-13T04:47:50.452Z,3.40
2019-01-13T04:50:24.083Z,3.30
2019-01-13T04:52:57.810Z,3.30
2019-01-13T04:55:31.509Z,3.30
2019-01-13T04:58:05.647Z,3.30
2019-01-13T05:00:39.351Z,3.30
2019-01-13T05:03:12.936Z,3.30
2019-01-13T05:05:46.575Z,3.30
2019-01-13T05:08:20.216Z,3.30
2019-01-13T05:10:53.892Z,3.20
2019-01-13T05:13:27.481Z,3.20
2019-01-13T05:16:01.106Z,3.20
2019-01-13T05:18:34.694Z,3.20
2019-01-13T05:21:08.385Z,3.20
2019-01-13T05:23:41.958Z,3.20
2019-01-13T05:26:15.580Z,3.10
2019-01-13T05:28:49.152Z,3.10
2019-01-13T05:31:22.781Z,3.10
2019-01-13T05:33:56.437Z,3.10
2019-01-13T05:36:30.071Z,3.00
2019-01-13T05:39:05.187Z,3.00
2019-01-13T05:41:38.877Z,2.90
2019-01-13T05:44:12.482Z,2.90
2019-01-13T05:46:46.182Z,2.90
2019-01-13T05:49:19.761Z,2.90
2019-01-13T05:51:53.374Z,2.90
2019-01-13T05:54:27.348Z,3.00
2019-01-13T05:57:01.030Z,3.00
2019-01-13T05:59:34.615Z,3.00
2019-01-13T06:02:08.227Z,3.00
2019-01-13T06:04:41.811Z,3.00
2019-01-13T06:07:16.130Z,3.00
2019-01-13T06:09:49.805Z,3.00
2019-01-13T06:12:23.431Z,3.00
2019-01-13T06:14:57.614Z,3.00
2019-01-13T06:17:31.228Z,3.00
2019-01-13T06:20:10.694Z,3.00
2019-01-13T06:22:44.487Z,3.00
2019-01-13T06:25:18.086Z,3.00
2019-01-13T06:27:51.704Z,3.10
2019-01-13T06:30:25.364Z,3.10
2019-01-13T06:32:59.085Z,3.10
2019-01-13T06:35:32.740Z,3.10
2019-01-13T06:38:06.504Z,3.10
2019-01-13T06:40:40.092Z,3.10
2019-01-13T06:43:13.709Z,3.10
2019-01-13T06:45:47.288Z,3.20
2019-01-13T06:48:22.564Z,3.20
2019-01-13T06:50:56.216Z,3.20
2019-01-13T06:53:29.920Z,3.20
2019-01-13T06:56:03.508Z,3.20
2019-01-13T06:58:37.131Z,3.20
2019-01-13T07:01:10.707Z,3.20
2019-01-13T07:03:44.354Z,3.20
2019-01-13T07:06:18.148Z,3.20
2019-01-13T07:08:51.754Z,3.20
2019-01-13T07:11:25.407Z,3.20
2019-01-13T07:13:58.992Z,3.30
2019-01-13T07:16:32.639Z,3.30
2019-01-13T07:19:06.385Z,3.30
2019-01-13T07:21:40.028Z,3.40
2019-01-13T07:24:13.600Z,3.40
2019-01-13T07:26:47.233Z,3.40
2019-01-13T07:29:20.805Z,3.40
2019-01-13T07:31:54.424Z,3.40
2019-01-13T07:34:28.006Z,3.40
2019-01-13T07:37:01.652Z,3.40
2019-01-13T07:39:35.403Z,3.40
2019-01-13T07:42:09.089Z,3.40
2019-01-13T07:44:42.675Z,3.40
2019-01-13T07:47:16.296Z,3.40
2019-01-13T07:49:49.932Z,3.30
2019-01-13T07:52:23.572Z,3.30
2019-01-13T07:54:57.150Z,3.40
2019-01-13T07:57:30.782Z,3.40
2019-01-13T08:00:09.994Z,3.40
2019-01-13T08:02:43.629Z,3.50
2019-01-13T08:05:17.354Z,3.60
2019-01-13T08:07:51.146Z,3.70
2019-01-13T08:10:24.806Z,3.70
2019-01-13T08:12:58.668Z,3.80
2019-01-13T08:15:32.282Z,3.80
2019-01-13T08:18:06.229Z,3.80
2019-01-13T08:20:39.942Z,3.80
2019-01-13T08:23:13.578Z,3.90
2019-01-13T08:25:47.142Z,3.90
2019-01-13T08:28:20.772Z,3.90
2019-01-13T08:30:54.344Z,3.90
2019-01-13T08:33:27.987Z,3.90
2019-01-13T08:36:01.684Z,4.00
2019-01-13T08:38:35.362Z,4.00
2019-01-13T08:41:08.974Z,4.10
2019-01-13T08:43:42.584Z,4.20
2019-01-13T08:46:16.183Z,4.20
2019-01-13T08:48:49.876Z,4.20
2019-01-13T08:51:23.601Z,4.40
2019-01-13T08:53:57.226Z,4.40
2019-01-13T08:56:30.808Z,4.50
2019-01-13T08:59:04.580Z,4.50
2019-01-13T09:01:38.230Z,4.30
2019-01-13T09:04:11.875Z,4.30
2019-01-13T09:06:45.490Z,4.30
2019-01-13T09:09:19.254Z,4.30
2019-01-13T09:11:52.982Z,4.30
2019-01-13T09:14:26.686Z,4.30
2019-01-13T09:17:00.435Z,4.30
2019-01-13T09:19:34.132Z,4.30
2019-01-13T09:22:07.778Z,4.40
2019-01-13T09:24:41.473Z,4.50
2019-01-13T09:27:15.050Z,4.50
2019-01-13T09:29:48.678Z,4.50
2019-01-13T09:32:22.348Z,4.60
2019-01-13T09:34:56.050Z,4.60
2019-01-13T09:37:29.732Z,4.70
2019-01-13T09:40:04.398Z,4.70
2019-01-13T09:42:38.148Z,4.70
2019-01-13T09:45:12.651Z,4.70
2019-01-13T09:47:46.242Z,4.70
2019-01-13T09:50:22.212Z,4.70
2019-01-13T09:52:55.854Z,4.70
2019-01-13T09:55:29.775Z,4.80
2019-01-13T09:58:03.357Z,4.90
2019-01-13T10:00:37.183Z,4.90
2019-01-13T10:03:11.088Z,4.80
2019-01-13T10:05:44.885Z,4.80
2019-01-13T10:08:18.562Z,4.80
2019-01-13T10:10:52.184Z,4.70
2019-01-13T10:13:25.788Z,4.70
2019-01-13T10:15:59.551Z,4.60
2019-01-13T10:18:33.471Z,4.60
2019-01-13T10:21:07.091Z,4.50
2019-01-13T10:23:40.668Z,4.50
2019-01-13T10:26:14.296Z,4.50
2019-01-13T10:28:47.905Z,4.50
2019-01-13T10:31:21.645Z,4.50
2019-01-13T10:33:55.223Z,4.40
2019-01-13T10:36:28.853Z,4.40
2019-01-13T10:39:02.608Z,4.40
2019-01-13T10:41:36.374Z,4.50
2019-01-13T10:44:09.956Z,4.50
2019-01-13T10:46:43.779Z,4.60
2019-01-13T10:49:17.417Z,4.60
2019-01-13T10:51:51.133Z,4.70
2019-01-13T10:54:24.775Z,4.80
2019-01-13T10:56:58.483Z,4.70
2019-01-13T10:59:32.137Z,4.70
2019-01-13T11:02:05.901Z,4.70
2019-01-13T11:04:39.484Z,4.70
2019-01-13T11:07:13.103Z,4.80
2019-01-13T11:09:46.691Z,4.80
2019-01-13T11:12:20.381Z,4.80
2019-01-13T11:14:53.979Z,4.70
2019-01-13T11:17:27.685Z,4.70
2019-01-13T11:20:01.473Z,4.80
2019-01-13T11:22:35.266Z,4.70
2019-01-13T11:25:09.687Z,4.70
2019-01-13T11:27:43.521Z,4.70
2019-01-13T11:30:19.806Z,4.80
2019-01-13T11:32:53.977Z,4.90
2019-01-13T11:35:27.805Z,4.90
2019-01-13T11:38:01.530Z,4.90
2019-01-13T11:40:35.089Z,4.90
2019-01-13T11:43:08.788Z,4.90
2019-01-13T11:45:42.767Z,4.90
2019-01-13T11:48:16.632Z,4.90
2019-01-13T11:50:50.344Z,5.00
2019-01-13T11:53:24.005Z,5.10
2019-01-13T11:55:57.665Z,5.10
2019-01-13T11:58:31.291Z,5.10
2019-01-13T12:01:05.921Z,5.10
2019-01-13T12:03:39.929Z,5.10
2019-01-13T12:06:13.586Z,5.00
2019-01-13T12:08:47.201Z,5.00
2019-01-13T12:11:20.789Z,5.00
2019-01-13T12:13:54.948Z,4.90
2019-01-13T12:16:34.283Z,4.90
2019-01-13T12:19:07.941Z,4.80
2019-01-13T12:21:41.607Z,4.80
2019-01-13T12:24:15.265Z,4.80
2019-01-13T12:26:53.245Z,4.70
2019-01-13T12:29:26.837Z,4.70
2019-01-13T12:32:00.504Z,4.70
2019-01-13T12:34:34.263Z,4.70
2019-01-13T12:37:08.560Z,4.60
2019-01-13T12:39:42.323Z,4.60
2019-01-13T12:42:15.986Z,4.50
2019-01-13T12:44:49.621Z,4.50
2019-01-13T12:47:23.204Z,4.50
2019-01-13T12:49:56.934Z,4.50
2019-01-13T12:52:30.534Z,4.50
2019-01-13T12:55:06.653Z,4.50
2019-01-13T12:57:40.316Z,4.50
2019-01-13T13:00:18.741Z,4.50
2019-01-13T13:02:52.460Z,4.50
2019-01-13T13:05:26.157Z,4.40
2019-01-13T13:07:59.894Z,4.40
2019-01-13T13:10:38.614Z,4.40
2019-01-13T13:13:18.146Z,4.40
2019-01-13T13:15:53.319Z,4.40
2019-01-13T13:18:27.010Z,4.40
2019-01-13T13:21:00.671Z,4.40
2019-01-13T13:23:34.386Z,4.50
2019-01-13T13:26:08.035Z,4.50
2019-01-13T13:28:41.675Z,4.50
2019-01-13T13:31:15.263Z,4.50
2019-01-13T13:33:48.904Z,4.50
2019-01-13T13:36:22.543Z,4.60
2019-01-13T13:38:56.158Z,4.50
2019-01-13T13:41:29.819Z,4.60
2019-01-13T13:44:03.786Z,4.60
2019-01-13T13:46:37.443Z,4.60
2019-01-13T13:49:11.145Z,4.60
2019-01-13T13:51:44.725Z,4.60
2019-01-13T13:54:18.347Z,4.60
2019-01-13T13:56:51.925Z,4.60
2019-01-13T13:59:25.698Z,4.50
2019-01-13T14:01:59.415Z,4.50
2019-01-13T14:04:33.036Z,4.50
2019-01-13T14:07:06.713Z,4.50
2019-01-13T14:09:40.363Z,4.50
2019-01-13T14:12:14.103Z,4.50
2019-01-13T14:14:47.725Z,4.50
2019-01-13T14:17:21.379Z,4.50
2019-01-13T14:19:55.009Z,4.50
2019-01-13T14:22:28.598Z,4.50
2019-01-13T14:25:02.244Z,4.40
2019-01-13T14:27:36.177Z,4.40
2019-01-13T14:30:18.515Z,4.40
2019-01-13T14:32:52.357Z,4.40
2019-01-13T14:35:26.246Z,4.40
2019-01-13T14:37:59.857Z,4.40
2019-01-13T14:40:33.611Z,4.40
2019-01-13T14:43:07.417Z,4.30
2019-01-13T14:45:41.055Z,4.30
2019-01-13T14:48:14.811Z,4.30
2019-01-13T14:50:48.437Z,4.30
2019-01-13T14:53:22.127Z,4.30
2019-01-13T14:55:56.286Z,4.30
2019-01-13T14:58:30.046Z,4.20
2019-01-13T15:01:03.805Z,4.20
2019-01-13T15:03:37.449Z,4.20
2019-01-13T15:06:11.169Z,4.20
2019-01-13T15:08:44.831Z,4.20
2019-01-13T15:11:19.511Z,4.20
2019-01-13T15:13:53.241Z,4.20
2019-01-13T15:16:26.837Z,4.20
2019-01-13T15:19:00.556Z,4.20
2019-01-13T15:21:34.645Z,4.20
2019-01-13T15:24:08.439Z,4.20
2019-01-13T15:26:41.969Z,4.20
2019-01-13T15:29:15.611Z,4.20
2019-01-13T15:31:49.275Z,4.20
2019-01-13T15:34:23.031Z,4.20
2019-01-13T15:36:56.619Z,4.20
2019-01-13T15:39:30.429Z,4.30
2019-01-13T15:42:04.237Z,4.30
2019-01-13T15:44:37.875Z,4.30
2019-01-13T15:47:11.682Z,4.20
2019-01-13T15:49:45.323Z,4.20
2019-01-13T15:52:18.928Z,4.20
2019-01-13T15:54:52.549Z,4.20
2019-01-13T15:57:26.134Z,4.20
2019-01-13T15:59:59.819Z,4.20
2019-01-13T16:02:33.519Z,4.20
2019-01-13T16:05:07.435Z,4.20
2019-01-13T16:07:41.097Z,4.20
2019-01-13T16:10:17.015Z,4.20
2019-01-13T16:12:50.811Z,4.20
2019-01-13T16:15:24.538Z,4.20
2019-01-13T16:17:58.328Z,4.20
2019-01-13T16:20:34.605Z,4.20
2019-01-13T16:23:08.320Z,4.20
2019-01-13T16:25:41.920Z,4.20
2019-01-13T16:28:15.626Z,4.10
2019-01-13T16:30:49.362Z,4.10
2019-01-13T16:33:23.057Z,4.10
2019-01-13T16:35:56.698Z,4.10
2019-01-13T16:38:30.334Z,4.00
2019-01-13T16:41:03.991Z,4.00
2019-01-13T16:43:37.708Z,4.00
2019-01-13T16:46:11.277Z,4.00
2019-01-13T16:48:44.981Z,4.00
2019-01-13T16:51:18.810Z,4.00
2019-01-13T16:53:52.479Z,4.00
2019-01-13T16:56:26.217Z,3.90
2019-01-13T16:58:59.856Z,4.00
2019-01-13T17:01:33.432Z,4.00
2019-01-13T17:04:07.136Z,4.00
2019-01-13T17:06:40.866Z,4.00
2019-01-13T17:09:14.599Z,4.00
2019-01-13T17:11:48.179Z,4.00
2019-01-13T17:14:21.892Z,4.00
2019-01-13T17:16:57.001Z,4.10
2019-01-13T17:19:30.632Z,4.10
2019-01-13T17:22:04.634Z,4.10
2019-01-13T17:24:38.346Z,4.10
2019-01-13T17:27:12.047Z,4.10
2019-01-13T17:29:46.043Z,4.10
2019-01-13T17:32:19.705Z,4.10
2019-01-13T17:34:53.272Z,4.20
2019-01-13T17:37:26.907Z,4.20
2019-01-13T17:40:00.500Z,4.20
2019-01-13T17:42:34.233Z,4.20
2019-01-13T17:45:16.460Z,4.20
2019-01-13T17:47:50.719Z,4.30
2019-01-13T17:50:25.829Z,4.30
2019-01-13T17:52:59.594Z,4.30
2019-01-13T17:55:33.410Z,4.30
2019-01-13T17:58:07.111Z,4.40
2019-01-13T18:00:49.369Z,4.40
2019-01-13T18:03:31.918Z,4.40
2019-01-13T18:06:05.616Z,4.40
2019-01-13T18:08:39.217Z,4.50
2019-01-13T18:11:12.860Z,4.50
2019-01-13T18:13:46.431Z,4.50
2019-01-13T18:16:20.139Z,4.50
2019-01-13T18:18:53.999Z,4.50
2019-01-13T18:21:27.628Z,4.60
2019-01-13T18:24:01.276Z,4.60
2019-01-13T18:26:35.013Z,4.50
2019-01-13T18:29:08.584Z,4.60
2019-01-13T18:31:42.275Z,4.60
2019-01-13T18:34:15.840Z,4.60
2019-01-13T18:36:49.829Z,4.60
2019-01-13T18:39:23.423Z,4.50
2019-01-13T18:41:57.131Z,4.50
2019-01-13T18:44:30.713Z,4.60
2019-01-13T18:47:04.621Z,4.50
2019-01-13T18:49:38.188Z,4.50
2019-01-13T18:52:11.795Z,4.50
2019-01-13T18:54:45.428Z,4.50
2019-01-13T18:57:19.152Z,4.50
2019-01-13T18:59:52.772Z,4.50
2019-01-13T19:02:26.609Z,4.50
2019-01-13T19:05:00.236Z,4.50
2019-01-13T19:07:33.883Z,4.50
2019-01-13T19:10:13.548Z,4.50
2019-01-13T19:12:50.195Z,4.50
2019-01-13T19:15:23.814Z,4.50
2019-01-13T19:17:59.253Z,4.50
2019-01-13T19:20:33.119Z,4.50
2019-01-13T19:23:06.859Z,4.50
2019-01-13T19:25:40.636Z,4.50
2019-01-13T19:28:14.346Z,4.50
2019-01-13T19:30:48.062Z,4.50
2019-01-13T19:33:21.655Z,4.50
2019-01-13T19:35:55.329Z,4.60
2019-01-13T19:38:28.917Z,4.60
2019-01-13T19:41:02.620Z,4.60
2019-01-13T19:43:36.200Z,4.60
2019-01-13T19:46:09.827Z,4.60
2019-01-13T19:48:43.402Z,4.60
2019-01-13T19:51:17.006Z,4.50
2019-01-13T19:53:50.716Z,4.40
2019-01-13T19:56:24.386Z,4.40
2019-01-13T19:58:57.994Z,4.30
2019-01-13T20:01:31.668Z,4.30
2019-01-13T20:04:05.425Z,4.20
2019-01-13T20:06:39.152Z,4.20
2019-01-13T20:09:12.854Z,4.30
2019-01-13T20:11:46.462Z,4.30
2019-01-13T20:14:20.146Z,4.30
2019-01-13T20:16:53.917Z,4.30
2019-01-13T20:19:27.504Z,4.30
2019-01-13T20:22:01.126Z,4.30
2019-01-13T20:24:34.802Z,4.30
2019-01-13T20:27:08.507Z,4.30
2019-01-13T20:29:42.078Z,4.30
2019-01-13T20:32:15.867Z,4.30
2019-01-13T20:34:49.543Z,4.30
2019-01-13T20:37:23.253Z,4.30
2019-01-13T20:39:56.897Z,4.30
2019-01-13T20:42:30.595Z,4.30
2019-01-13T20:45:16.215Z,4.40
2019-01-13T20:47:49.860Z,4.40
2019-01-13T20:50:23.489Z,4.40
2019-01-13T20:52:57.117Z,4.40
2019-01-13T20:55:30.699Z,4.40
2019-01-13T20:58:04.567Z,4.40
2019-01-13T21:00:38.295Z,4.40
2019-01-13T21:03:12.960Z,4.50
2019-01-13T21:05:46.686Z,4.50
2019-01-13T21:08:20.343Z,4.50
2019-01-13T21:10:53.919Z,4.60
2019-01-13T21:13:27.654Z,4.60
2019-01-13T21:16:01.278Z,4.70
2019-01-13T21:18:34.919Z,4.70
2019-01-13T21:21:08.813Z,4.70
2019-01-13T21:23:42.526Z,4.70
2019-01-13T21:26:16.159Z,4.70
2019-01-13T21:28:49.755Z,4.70
2019-01-13T21:31:23.357Z,4.70
2019-01-13T21:33:57.189Z,4.70
2019-01-13T21:36:30.915Z,4.70
2019-01-13T21:39:07.106Z,4.60
2019-01-13T21:41:41.136Z,4.60
2019-01-13T21:44:14.719Z,4.60
2019-01-13T21:46:48.341Z,4.70
2019-01-13T21:49:24.578Z,4.80
2019-01-13T21:51:58.447Z,4.80
2019-01-13T21:54:33.715Z,4.80
2019-01-13T21:57:07.350Z,4.90
2019-01-13T21:59:40.936Z,4.80
2019-01-13T22:02:14.621Z,4.90
2019-01-13T22:04:48.191Z,4.90
2019-01-13T22:07:21.830Z,4.90
2019-01-13T22:09:56.959Z,4.80
2019-01-13T22:12:30.706Z,4.80
2019-01-13T22:15:06.925Z,4.80
2019-01-13T22:17:40.690Z,4.70
2019-01-13T22:20:19.629Z,4.60
2019-01-13T22:22:54.289Z,4.60
2019-01-13T22:25:28.017Z,4.60
2019-01-13T22:28:01.757Z,4.60
2019-01-13T22:30:35.331Z,4.60
2019-01-13T22:33:08.929Z,4.60
2019-01-13T22:35:48.183Z,4.60
2019-01-13T22:38:17.849Z,4.60
2019-01-13T22:40:51.419Z,4.60
2019-01-13T22:43:25.057Z,4.60
2019-01-13T22:45:58.645Z,4.60
2019-01-13T22:48:32.333Z,4.60
2019-01-13T22:51:05.977Z,4.60
2019-01-13T22:53:39.594Z,4.60
2019-01-13T22:56:13.179Z,4.70
2019-01-13T22:58:46.793Z,4.70
2019-01-13T23:01:24.763Z,4.70
2019-01-13T23:03:58.623Z,4.60
2019-01-13T23:06:32.319Z,4.60
2019-01-13T23:09:07.827Z,4.60
2019-01-13T23:11:41.591Z,4.50
2019-01-13T23:14:15.171Z,4.60
2019-01-13T23:16:48.883Z,4.60
2019-01-13T23:19:22.539Z,4.60
2019-01-13T23:21:56.166Z,4.60
2019-01-13T23:24:29.802Z,4.60
2019-01-13T23:27:03.428Z,4.50
2019-01-13T23:29:37.023Z,4.50
2019-01-13T23:32:10.725Z,4.50
2019-01-13T23:34:44.296Z,4.50
2019-01-13T23:37:18.004Z,4.50
2019-01-13T23:39:51.577Z,4.40
2019-01-13T23:42:25.182Z,4.40
2019-01-13T23:44:58.839Z,4.40
2019-01-13T23:47:32.456Z,4.40
2019-01-13T23:50:07.984Z,4.40
2019-01-13T23:52:41.796Z,4.30
2019-01-13T23:55:15.627Z,4.30
2019-01-13T23:57:49.334Z,4.30
